sensor_id;sensor_type;location;lat;lon;timestamp;pressure;altitude;pressure_sealevel;temperature;humidity
2184;BME280;1098;48.940;8.962;2022-10-16T00:01:22;98377.94;;;14.98;100.00
2184;BME280;1098;48.940;8.962;2022-10-16T00:03:51;98378.56;;;15.37;100.00
2184;BME280;1098;48.940;8.962;2022-10-16T00:06:22;98365.53;;;15.44;100.00
2184;BME280;1098;48.940;8.962;2022-10-16T00:08:50;98356.38;;;15.23;100.00
2184;BME280;1098;48.940;8.962;2022-10-16T00:11:21;98355.75;;;15.11;100.00
2184;BME280;1098;48.940;8.962;2022-10-16T00:13:51;98364.69;;;15.06;100.00
2184;BME280;1098;48.940;8.962;2022-10-16T00:16:20;98362.59;;;15.19;100.00
2184;BME280;1098;48.940;8.962;2022-10-16T00:18:48;98345.28;;;15.30;100.00
2184;BME280;1098;48.940;8.962;2022-10-16T00:21:19;98345.25;;;15.57;100.00
2184;BME280;1098;48.940;8.962;2022-10-16T00:23:51;98351.19;;;15.17;100.00
2184;BME280;1098;48.940;8.962;2022-10-16T00:26:22;98343.53;;;15.51;100.00
2184;BME280;1098;48.940;8.962;2022-10-16T00:28:51;98341.72;;;15.61;100.00
2184;BME280;1098;48.940;8.962;2022-10-16T00:31:21;98352.53;;;15.51;100.00
2184;BME280;1098;48.940;8.962;2022-10-16T00:33:50;98351.50;;;15.57;100.00
2184;BME280;1098;48.940;8.962;2022-10-16T00:36:21;98351.91;;;15.44;100.00
2184;BME280;1098;48.940;8.962;2022-10-16T00:38:52;98363.38;;;15.46;100.00
2184;BME280;1098;48.940;8.962;2022-10-16T00:41:25;98358.31;;;15.60;100.00
2184;BME280;1098;48.940;8.962;2022-10-16T00:43:55;98334.91;;;15.27;100.00
2184;BME280;1098;48.940;8.962;2022-10-16T00:46:29;98354.63;;;15.44;100.00
2184;BME280;1098;48.940;8.962;2022-10-16T00:49:02;98351.41;;;15.47;100.00
2184;BME280;1098;48.940;8.962;2022-10-16T00:51:33;98360.81;;;15.29;100.00
2184;BME280;1098;48.940;8.962;2022-10-16T00:54:09;98361.50;;;15.52;100.00
2184;BME280;1098;48.940;8.962;2022-10-16T00:56:39;98363.72;;;15.55;100.00
2184;BME280;1098;48.940;8.962;2022-10-16T00:59:11;98367.94;;;15.35;100.00
2184;BME280;1098;48.940;8.962;2022-10-16T01:01:43;98358.19;;;15.44;100.00
2184;BME280;1098;48.940;8.962;2022-10-16T01:04:11;98359.16;;;15.65;100.00
2184;BME280;1098;48.940;8.962;2022-10-16T01:06:47;98355.53;;;15.55;100.00
2184;BME280;1098;48.940;8.962;2022-10-16T01:09:24;98356.13;;;15.57;100.00
2184;BME280;1098;48.940;8.962;2022-10-16T01:11:59;98351.09;;;15.43;100.00
2184;BME280;1098;48.940;8.962;2022-10-16T01:14:40;98348.06;;;15.72;100.00
2184;BME280;1098;48.940;8.962;2022-10-16T01:17:16;98347.03;;;15.46;100.00
2184;BME280;1098;48.940;8.962;2022-10-16T01:20:00;98360.34;;;15.42;100.00
2184;BME280;1098;48.940;8.962;2022-10-16T01:22:38;98367.59;;;15.59;100.00
2184;BME280;1098;48.940;8.962;2022-10-16T01:25:12;98363.09;;;15.47;100.00
2184;BME280;1098;48.940;8.962;2022-10-16T01:27:46;98375.84;;;15.37;100.00
2184;BME280;1098;48.940;8.962;2022-10-16T01:30:18;98370.19;;;15.48;100.00
2184;BME280;1098;48.940;8.962;2022-10-16T01:32:50;98351.69;;;15.51;100.00
2184;BME280;1098;48.940;8.962;2022-10-16T01:35:23;98357.16;;;15.51;100.00
2184;BME280;1098;48.940;8.962;2022-10-16T01:37:57;98353.19;;;15.31;100.00
2184;BME280;1098;48.940;8.962;2022-10-16T01:40:28;98357.78;;;15.63;100.00
2184;BME280;1098;48.940;8.962;2022-10-16T01:43:02;98351.88;;;15.71;100.00
2184;BME280;1098;48.940;8.962;2022-10-16T01:45:32;98353.84;;;15.48;100.00
2184;BME280;1098;48.940;8.962;2022-10-16T01:48:02;98347.25;;;15.39;100.00
2184;BME280;1098;48.940;8.962;2022-10-16T01:50:35;98340.28;;;15.54;100.00
2184;BME280;1098;48.940;8.962;2022-10-16T01:53:07;98343.13;;;15.69;100.00
2184;BME280;1098;48.940;8.962;2022-10-16T01:55:40;98349.53;;;15.53;100.00
2184;BME280;1098;48.940;8.962;2022-10-16T01:58:15;98352.59;;;15.56;100.00
2184;BME280;1098;48.940;8.962;2022-10-16T02:00:45;98355.53;;;15.55;100.00
2184;BME280;1098;48.940;8.962;2022-10-16T02:03:17;98347.81;;;15.41;100.00
2184;BME280;1098;48.940;8.962;2022-10-16T02:05:49;98351.91;;;15.44;100.00
2184;BME280;1098;48.940;8.962;2022-10-16T02:08:19;98356.03;;;15.46;100.00
2184;BME280;1098;48.940;8.962;2022-10-16T02:10:47;98349.69;;;15.73;100.00
2184;BME280;1098;48.940;8.962;2022-10-16T02:13:17;98343.72;;;15.81;100.00
2184;BME280;1098;48.940;8.962;2022-10-16T02:15:49;98347.41;;;15.60;100.00
2184;BME280;1098;48.940;8.962;2022-10-16T02:18:20;98340.69;;;15.72;100.00
2184;BME280;1098;48.940;8.962;2022-10-16T02:20:51;98343.88;;;15.59;100.00
2184;BME280;1098;48.940;8.962;2022-10-16T02:23:22;98338.38;;;16.01;100.00
2184;BME280;1098;48.940;8.962;2022-10-16T02:25:52;98334.78;;;15.86;100.00
2184;BME280;1098;48.940;8.962;2022-10-16T02:28:26;98335.59;;;15.86;100.00
2184;BME280;1098;48.940;8.962;2022-10-16T02:30:57;98339.47;;;16.00;100.00
2184;BME280;1098;48.940;8.962;2022-10-16T02:33:27;98338.28;;;15.81;100.00
2184;BME280;1098;48.940;8.962;2022-10-16T02:35:56;98338.13;;;15.98;100.00
2184;BME280;1098;48.940;8.962;2022-10-16T02:38:27;98345.84;;;15.69;100.00
2184;BME280;1098;48.940;8.962;2022-10-16T02:40:57;98353.34;;;15.94;100.00
2184;BME280;1098;48.940;8.962;2022-10-16T02:43:26;98339.69;;;15.89;100.00
2184;BME280;1098;48.940;8.962;2022-10-16T02:45:56;98349.44;;;15.42;100.00
2184;BME280;1098;48.940;8.962;2022-10-16T02:48:24;98353.75;;;15.70;100.00
2184;BME280;1098;48.940;8.962;2022-10-16T02:50:52;98357.44;;;15.91;100.00
2184;BME280;1098;48.940;8.962;2022-10-16T02:53:20;98359.88;;;15.93;100.00
2184;BME280;1098;48.940;8.962;2022-10-16T02:55:48;98358.78;;;15.52;100.00
2184;BME280;1098;48.940;8.962;2022-10-16T02:58:16;98371.94;;;15.60;100.00
2184;BME280;1098;48.940;8.962;2022-10-16T03:00:46;98363.56;;;15.71;100.00
2184;BME280;1098;48.940;8.962;2022-10-16T03:03:14;98376.63;;;15.32;100.00
2184;BME280;1098;48.940;8.962;2022-10-16T03:05:42;98366.34;;;15.44;100.00
2184;BME280;1098;48.940;8.962;2022-10-16T03:08:12;98356.41;;;15.60;100.00
2184;BME280;1098;48.940;8.962;2022-10-16T03:10:40;98361.38;;;15.31;100.00
2184;BME280;1098;48.940;8.962;2022-10-16T03:13:08;98370.16;;;15.43;100.00
2184;BME280;1098;48.940;8.962;2022-10-16T03:15:36;98369.97;;;15.55;100.00
2184;BME280;1098;48.940;8.962;2022-10-16T03:18:05;98380.72;;;15.35;100.00
2184;BME280;1098;48.940;8.962;2022-10-16T03:20:33;98369.63;;;15.46;100.00
2184;BME280;1098;48.940;8.962;2022-10-16T03:23:01;98387.47;;;15.27;100.00
2184;BME280;1098;48.940;8.962;2022-10-16T03:25:32;98391.88;;;15.38;100.00
2184;BME280;1098;48.940;8.962;2022-10-16T03:28:00;98388.91;;;15.35;100.00
2184;BME280;1098;48.940;8.962;2022-10-16T03:30:28;98393.72;;;14.96;100.00
2184;BME280;1098;48.940;8.962;2022-10-16T03:32:56;98393.72;;;15.28;100.00
2184;BME280;1098;48.940;8.962;2022-10-16T03:35:25;98392.94;;;15.32;100.00
2184;BME280;1098;48.940;8.962;2022-10-16T03:37:53;98382.28;;;14.99;100.00
2184;BME280;1098;48.940;8.962;2022-10-16T03:40:21;98388.31;;;15.01;100.00
2184;BME280;1098;48.940;8.962;2022-10-16T03:42:49;98388.34;;;15.06;100.00
2184;BME280;1098;48.940;8.962;2022-10-16T03:45:17;98391.66;;;15.08;100.00
2184;BME280;1098;48.940;8.962;2022-10-16T03:47:45;98407.13;;;14.75;100.00
2184;BME280;1098;48.940;8.962;2022-10-16T03:50:14;98396.50;;;15.33;100.00
2184;BME280;1098;48.940;8.962;2022-10-16T03:52:43;98399.63;;;14.88;100.00
2184;BME280;1098;48.940;8.962;2022-10-16T03:55:11;98401.25;;;15.16;100.00
2184;BME280;1098;48.940;8.962;2022-10-16T03:57:39;98396.28;;;15.07;100.00
2184;BME280;1098;48.940;8.962;2022-10-16T04:00:08;98395.75;;;14.84;100.00
2184;BME280;1098;48.940;8.962;2022-10-16T04:02:39;98391.25;;;15.26;100.00
2184;BME280;1098;48.940;8.962;2022-10-16T04:05:07;98397.84;;;15.30;100.00
2184;BME280;1098;48.940;8.962;2022-10-16T04:07:35;98390.31;;;15.10;100.00
2184;BME280;1098;48.940;8.962;2022-10-16T04:10:06;98386.81;;;15.15;100.00
2184;BME280;1098;48.940;8.962;2022-10-16T04:12:34;98389.56;;;15.20;100.00
2184;BME280;1098;48.940;8.962;2022-10-16T04:15:04;98393.59;;;15.12;100.00
2184;BME280;1098;48.940;8.962;2022-10-16T04:17:35;98386.19;;;15.08;100.00
2184;BME280;1098;48.940;8.962;2022-10-16T04:20:03;98381.44;;;15.25;100.00
2184;BME280;1098;48.940;8.962;2022-10-16T04:22:33;98387.47;;;14.95;100.00
2184;BME280;1098;48.940;8.962;2022-10-16T04:25:01;98395.56;;;14.90;100.00
2184;BME280;1098;48.940;8.962;2022-10-16T04:27:31;98401.19;;;15.10;100.00
2184;BME280;1098;48.940;8.962;2022-10-16T04:29:59;98406.81;;;15.31;100.00
2184;BME280;1098;48.940;8.962;2022-10-16T04:32:27;98408.22;;;15.38;100.00
2184;BME280;1098;48.940;8.962;2022-10-16T04:34:55;98404.25;;;15.19;100.00
2184;BME280;1098;48.940;8.962;2022-10-16T04:37:23;98401.44;;;15.41;100.00
2184;BME280;1098;48.940;8.962;2022-10-16T04:39:52;98396.50;;;15.33;100.00
2184;BME280;1098;48.940;8.962;2022-10-16T04:42:22;98396.25;;;15.34;100.00
2184;BME280;1098;48.940;8.962;2022-10-16T04:44:51;98404.78;;;15.48;100.00
2184;BME280;1098;48.940;8.962;2022-10-16T04:47:20;98394.19;;;15.52;100.00
2184;BME280;1098;48.940;8.962;2022-10-16T04:49:48;98413.31;;;14.98;100.00
2184;BME280;1098;48.940;8.962;2022-10-16T04:52:16;98441.59;;;14.70;100.00
2184;BME280;1098;48.940;8.962;2022-10-16T04:54:45;98446.66;;;14.61;100.00
2184;BME280;1098;48.940;8.962;2022-10-16T04:57:13;98446.53;;;14.51;100.00
2184;BME280;1098;48.940;8.962;2022-10-16T04:59:41;98451.56;;;14.64;100.00
2184;BME280;1098;48.940;8.962;2022-10-16T05:02:11;98457.72;;;14.55;100.00
2184;BME280;1098;48.940;8.962;2022-10-16T05:04:39;98463.09;;;14.50;100.00
2184;BME280;1098;48.940;8.962;2022-10-16T05:07:07;98462.28;;;14.49;100.00
2184;BME280;1098;48.940;8.962;2022-10-16T05:09:35;98465.81;;;14.50;100.00
2184;BME280;1098;48.940;8.962;2022-10-16T05:12:03;98466.00;;;14.43;100.00
2184;BME280;1098;48.940;8.962;2022-10-16T05:14:31;98460.00;;;14.41;100.00
2184;BME280;1098;48.940;8.962;2022-10-16T05:16:59;98466.66;;;14.33;100.00
2184;BME280;1098;48.940;8.962;2022-10-16T05:19:29;98467.41;;;14.29;100.00
2184;BME280;1098;48.940;8.962;2022-10-16T05:21:57;98467.47;;;14.51;100.00
2184;BME280;1098;48.940;8.962;2022-10-16T05:24:25;98463.28;;;14.65;100.00
2184;BME280;1098;48.940;8.962;2022-10-16T05:26:54;98459.34;;;14.56;100.00
2184;BME280;1098;48.940;8.962;2022-10-16T05:29:22;98455.59;;;14.84;100.00
2184;BME280;1098;48.940;8.962;2022-10-16T05:31:50;98451.88;;;14.90;100.00
2184;BME280;1098;48.940;8.962;2022-10-16T05:34:18;98444.38;;;14.53;100.00
2184;BME280;1098;48.940;8.962;2022-10-16T05:36:48;98446.81;;;14.33;100.00
2184;BME280;1098;48.940;8.962;2022-10-16T05:39:16;98461.13;;;14.45;100.00
2184;BME280;1098;48.940;8.962;2022-10-16T05:41:44;98453.41;;;14.59;100.00
2184;BME280;1098;48.940;8.962;2022-10-16T05:44:12;98449.91;;;14.85;100.00
2184;BME280;1098;48.940;8.962;2022-10-16T05:46:40;98452.81;;;14.78;100.00
2184;BME280;1098;48.940;8.962;2022-10-16T05:49:08;98460.81;;;14.63;100.00
2184;BME280;1098;48.940;8.962;2022-10-16T05:51:36;98453.34;;;14.75;100.00
2184;BME280;1098;48.940;8.962;2022-10-16T05:54:05;98462.28;;;14.49;100.00
2184;BME280;1098;48.940;8.962;2022-10-16T05:56:33;98468.03;;;14.74;100.00
2184;BME280;1098;48.940;8.962;2022-10-16T05:59:02;98465.75;;;14.66;100.00
2184;BME280;1098;48.940;8.962;2022-10-16T06:01:30;98467.41;;;14.46;100.00
2184;BME280;1098;48.940;8.962;2022-10-16T06:03:59;98468.53;;;14.50;100.00
2184;BME280;1098;48.940;8.962;2022-10-16T06:06:27;98475.88;;;14.49;100.00
2184;BME280;1098;48.940;8.962;2022-10-16T06:08:56;98463.94;;;14.33;100.00
2184;BME280;1098;48.940;8.962;2022-10-16T06:11:28;98478.38;;;14.34;100.00
2184;BME280;1098;48.940;8.962;2022-10-16T06:13:57;98486.69;;;14.66;100.00
2184;BME280;1098;48.940;8.962;2022-10-16T06:16:27;98488.38;;;14.94;100.00
2184;BME280;1098;48.940;8.962;2022-10-16T06:18:55;98483.28;;;14.54;100.00
2184;BME280;1098;48.940;8.962;2022-10-16T06:21:24;98474.63;;;14.40;100.00
2184;BME280;1098;48.940;8.962;2022-10-16T06:23:52;98489.00;;;14.57;100.00
2184;BME280;1098;48.940;8.962;2022-10-16T06:26:21;98489.38;;;14.88;100.00
2184;BME280;1098;48.940;8.962;2022-10-16T06:28:53;98499.19;;;14.89;100.00
2184;BME280;1098;48.940;8.962;2022-10-16T06:31:21;98479.19;;;14.56;100.00
2184;BME280;1098;48.940;8.962;2022-10-16T06:33:50;98493.47;;;15.12;100.00
2184;BME280;1098;48.940;8.962;2022-10-16T06:36:18;98483.97;;;15.15;100.00
2184;BME280;1098;48.940;8.962;2022-10-16T06:38:47;98491.66;;;15.23;100.00
2184;BME280;1098;48.940;8.962;2022-10-16T06:41:16;98496.78;;;15.14;100.00
2184;BME280;1098;48.940;8.962;2022-10-16T06:43:44;98502.75;;;14.67;100.00
2184;BME280;1098;48.940;8.962;2022-10-16T06:46:15;98505.28;;;14.74;100.00
2184;BME280;1098;48.940;8.962;2022-10-16T06:48:43;98512.63;;;14.95;100.00
2184;BME280;1098;48.940;8.962;2022-10-16T06:51:12;98505.34;;;15.28;100.00
2184;BME280;1098;48.940;8.962;2022-10-16T06:53:40;98518.75;;;15.34;100.00
2184;BME280;1098;48.940;8.962;2022-10-16T06:56:28;98511.41;;;15.62;100.00
2184;BME280;1098;48.940;8.962;2022-10-16T06:58:58;98510.22;;;15.85;100.00
2184;BME280;1098;48.940;8.962;2022-10-16T07:01:28;98501.06;;;15.59;100.00
2184;BME280;1098;48.940;8.962;2022-10-16T07:03:56;98505.41;;;15.33;100.00
2184;BME280;1098;48.940;8.962;2022-10-16T07:06:25;98524.56;;;15.70;100.00
2184;BME280;1098;48.940;8.962;2022-10-16T07:08:53;98532.34;;;15.07;100.00
2184;BME280;1098;48.940;8.962;2022-10-16T07:11:22;98541.38;;;15.13;100.00
2184;BME280;1098;48.940;8.962;2022-10-16T07:13:53;98547.84;;;15.07;100.00
2184;BME280;1098;48.940;8.962;2022-10-16T07:16:23;98555.25;;;15.11;100.00
2184;BME280;1098;48.940;8.962;2022-10-16T07:18:52;98550.25;;;15.52;100.00
2184;BME280;1098;48.940;8.962;2022-10-16T07:21:25;98549.16;;;15.26;100.00
2184;BME280;1098;48.940;8.962;2022-10-16T07:23:55;98549.63;;;15.45;100.00
2184;BME280;1098;48.940;8.962;2022-10-16T07:26:23;98544.28;;;15.55;100.00
2184;BME280;1098;48.940;8.962;2022-10-16T07:28:51;98536.91;;;15.77;100.00
2184;BME280;1098;48.940;8.962;2022-10-16T07:31:20;98535.19;;;16.03;100.00
2184;BME280;1098;48.940;8.962;2022-10-16T07:33:49;98526.41;;;15.96;100.00
2184;BME280;1098;48.940;8.962;2022-10-16T07:36:19;98541.34;;;15.57;100.00
2184;BME280;1098;48.940;8.962;2022-10-16T07:38:49;98538.91;;;15.38;100.00
2184;BME280;1098;48.940;8.962;2022-10-16T07:41:22;98545.34;;;15.81;100.00
2184;BME280;1098;48.940;8.962;2022-10-16T07:43:51;98548.53;;;16.42;100.00
2184;BME280;1098;48.940;8.962;2022-10-16T07:46:21;98548.53;;;16.37;100.00
2184;BME280;1098;48.940;8.962;2022-10-16T07:48:49;98547.16;;;16.81;100.00
2184;BME280;1098;48.940;8.962;2022-10-16T07:51:19;98525.75;;;17.26;100.00
2184;BME280;1098;48.940;8.962;2022-10-16T07:53:48;98525.88;;;16.78;100.00
2184;BME280;1098;48.940;8.962;2022-10-16T07:56:16;98530.56;;;16.46;100.00
2184;BME280;1098;48.940;8.962;2022-10-16T07:58:45;98532.41;;;16.35;100.00
2184;BME280;1098;48.940;8.962;2022-10-16T08:01:14;98534.19;;;16.57;100.00
2184;BME280;1098;48.940;8.962;2022-10-16T08:03:45;98534.31;;;16.77;100.00
2184;BME280;1098;48.940;8.962;2022-10-16T08:06:13;98536.88;;;17.09;100.00
2184;BME280;1098;48.940;8.962;2022-10-16T08:08:43;98532.00;;;17.16;100.00
2184;BME280;1098;48.940;8.962;2022-10-16T08:11:11;98529.09;;;17.43;100.00
2184;BME280;1098;48.940;8.962;2022-10-16T08:13:43;98511.09;;;18.13;100.00
2184;BME280;1098;48.940;8.962;2022-10-16T08:16:11;98492.75;;;18.18;100.00
2184;BME280;1098;48.940;8.962;2022-10-16T08:18:40;98495.13;;;18.55;100.00
2184;BME280;1098;48.940;8.962;2022-10-16T08:21:11;98495.13;;;18.55;100.00
2184;BME280;1098;48.940;8.962;2022-10-16T08:23:48;98497.84;;;18.71;100.00
2184;BME280;1098;48.940;8.962;2022-10-16T08:26:24;98506.66;;;18.63;100.00
2184;BME280;1098;48.940;8.962;2022-10-16T08:28:52;98515.72;;;18.17;100.00
2184;BME280;1098;48.940;8.962;2022-10-16T08:31:20;98512.16;;;18.32;100.00
2184;BME280;1098;48.940;8.962;2022-10-16T08:33:49;98529.16;;;17.83;100.00
2184;BME280;1098;48.940;8.962;2022-10-16T08:36:18;98526.41;;;18.24;100.00
2184;BME280;1098;48.940;8.962;2022-10-16T08:38:49;98516.28;;;18.14;100.00
2184;BME280;1098;48.940;8.962;2022-10-16T08:41:22;98517.88;;;18.61;100.00
2184;BME280;1098;48.940;8.962;2022-10-16T08:44:00;98521.44;;;18.41;100.00
2184;BME280;1098;48.940;8.962;2022-10-16T08:46:34;98514.56;;;18.54;100.00
2184;BME280;1098;48.940;8.962;2022-10-16T08:49:05;98512.38;;;18.61;100.00
2184;BME280;1098;48.940;8.962;2022-10-16T08:51:36;98518.44;;;18.43;100.00
2184;BME280;1098;48.940;8.962;2022-10-16T08:54:15;98520.34;;;18.32;100.00
2184;BME280;1098;48.940;8.962;2022-10-16T08:56:46;98519.81;;;18.35;100.00
2184;BME280;1098;48.940;8.962;2022-10-16T08:59:14;98512.19;;;18.17;100.00
2184;BME280;1098;48.940;8.962;2022-10-16T09:01:44;98526.09;;;18.46;100.00
2184;BME280;1098;48.940;8.962;2022-10-16T09:07:08;98541.50;;;19.11;100.00
2184;BME280;1098;48.940;8.962;2022-10-16T09:09:45;98529.19;;;19.09;100.00
2184;BME280;1098;48.940;8.962;2022-10-16T09:12:21;98527.56;;;19.08;100.00
2184;BME280;1098;48.940;8.962;2022-10-16T09:15:01;98528.84;;;19.20;100.00
2184;BME280;1098;48.940;8.962;2022-10-16T09:17:37;98521.88;;;19.38;100.00
2184;BME280;1098;48.940;8.962;2022-10-16T09:20:13;98531.81;;;19.29;100.00
2184;BME280;1098;48.940;8.962;2022-10-16T09:22:45;98534.41;;;19.60;100.00
2184;BME280;1098;48.940;8.962;2022-10-16T09:25:16;98541.31;;;19.52;100.00
2184;BME280;1098;48.940;8.962;2022-10-16T09:27:45;98548.34;;;19.63;100.00
2184;BME280;1098;48.940;8.962;2022-10-16T09:30:16;98542.94;;;19.92;100.00
2184;BME280;1098;48.940;8.962;2022-10-16T09:32:47;98542.50;;;19.75;100.00
2184;BME280;1098;48.940;8.962;2022-10-16T09:35:20;98545.69;;;19.92;100.00
2184;BME280;1098;48.940;8.962;2022-10-16T09:37:51;98535.75;;;19.96;100.00
2184;BME280;1098;48.940;8.962;2022-10-16T09:40:26;98547.63;;;19.92;100.00
2184;BME280;1098;48.940;8.962;2022-10-16T09:42:56;98554.06;;;19.72;100.00
2184;BME280;1098;48.940;8.962;2022-10-16T09:45:32;98552.72;;;19.69;100.00
2184;BME280;1098;48.940;8.962;2022-10-16T09:48:08;98556.78;;;20.45;100.00
2184;BME280;1098;48.940;8.962;2022-10-16T09:50:37;98566.59;;;19.83;100.00
2184;BME280;1098;48.940;8.962;2022-10-16T09:53:10;98562.97;;;19.93;100.00
2184;BME280;1098;48.940;8.962;2022-10-16T09:55:51;98566.84;;;20.20;100.00
2184;BME280;1098;48.940;8.962;2022-10-16T09:58:21;98562.94;;;20.84;100.00
2184;BME280;1098;48.940;8.962;2022-10-16T10:00:51;98576.00;;;20.45;100.00
2184;BME280;1098;48.940;8.962;2022-10-16T10:03:30;98563.81;;;21.27;100.00
2184;BME280;1098;48.940;8.962;2022-10-16T10:06:01;98556.69;;;21.83;100.00
2184;BME280;1098;48.940;8.962;2022-10-16T10:08:32;98558.94;;;21.62;100.00
2184;BME280;1098;48.940;8.962;2022-10-16T10:11:01;98561.59;;;21.06;100.00
2184;BME280;1098;48.940;8.962;2022-10-16T10:13:29;98559.56;;;21.16;100.00
2184;BME280;1098;48.940;8.962;2022-10-16T10:15:57;98540.28;;;20.98;100.00
2184;BME280;1098;48.940;8.962;2022-10-16T10:18:28;98570.13;;;21.28;100.00
2184;BME280;1098;48.940;8.962;2022-10-16T10:20:59;98564.94;;;21.26;100.00
2184;BME280;1098;48.940;8.962;2022-10-16T10:23:28;98554.66;;;20.89;100.00
2184;BME280;1098;48.940;8.962;2022-10-16T10:25:57;98573.28;;;21.40;100.00
2184;BME280;1098;48.940;8.962;2022-10-16T10:28:42;98568.41;;;21.56;100.00
2184;BME280;1098;48.940;8.962;2022-10-16T10:31:17;98568.34;;;21.80;100.00
2184;BME280;1098;48.940;8.962;2022-10-16T10:33:48;98580.88;;;22.23;100.00
2184;BME280;1098;48.940;8.962;2022-10-16T10:36:29;98572.69;;;21.62;100.00
2184;BME280;1098;48.940;8.962;2022-10-16T10:38:58;98577.69;;;22.16;100.00
2184;BME280;1098;48.940;8.962;2022-10-16T10:41:32;98568.81;;;22.52;100.00
2184;BME280;1098;48.940;8.962;2022-10-16T10:44:07;98574.03;;;21.83;100.00
2184;BME280;1098;48.940;8.962;2022-10-16T10:46:41;98570.03;;;22.13;100.00
2184;BME280;1098;48.940;8.962;2022-10-16T10:49:16;98569.72;;;21.96;100.00
2184;BME280;1098;48.940;8.962;2022-10-16T10:51:49;98569.22;;;21.94;100.00
2184;BME280;1098;48.940;8.962;2022-10-16T10:54:20;98569.59;;;21.69;100.00
2184;BME280;1098;48.940;8.962;2022-10-16T10:56:56;98579.06;;;22.00;100.00
2184;BME280;1098;48.940;8.962;2022-10-16T10:59:32;98581.22;;;22.36;100.00
2184;BME280;1098;48.940;8.962;2022-10-16T11:02:07;98571.09;;;22.63;100.00
2184;BME280;1098;48.940;8.962;2022-10-16T11:07:27;98575.66;;;21.66;100.00
2184;BME280;1098;48.940;8.962;2022-10-16T11:09:58;98570.38;;;21.88;100.00
2184;BME280;1098;48.940;8.962;2022-10-16T11:12:27;98571.44;;;21.92;100.00
2184;BME280;1098;48.940;8.962;2022-10-16T11:15:03;98565.28;;;21.20;100.00
2184;BME280;1098;48.940;8.962;2022-10-16T11:17:33;98575.56;;;21.33;100.00
2184;BME280;1098;48.940;8.962;2022-10-16T11:20:05;98568.97;;;21.34;100.00
2184;BME280;1098;48.940;8.962;2022-10-16T11:22:39;98562.47;;;21.01;100.00
2184;BME280;1098;48.940;8.962;2022-10-16T11:25:13;98563.59;;;21.24;100.00
2184;BME280;1098;48.940;8.962;2022-10-16T11:27:45;98576.50;;;21.23;100.00
2184;BME280;1098;48.940;8.962;2022-10-16T11:30:18;98574.28;;;21.25;100.00
2184;BME280;1098;48.940;8.962;2022-10-16T11:33:01;98576.22;;;21.25;100.00
2184;BME280;1098;48.940;8.962;2022-10-16T11:35:37;98571.59;;;21.82;100.00
2184;BME280;1098;48.940;8.962;2022-10-16T11:38:09;98574.84;;;21.65;100.00
2184;BME280;1098;48.940;8.962;2022-10-16T11:40:38;98579.75;;;21.87;100.00
2184;BME280;1098;48.940;8.962;2022-10-16T11:43:10;98581.56;;;21.78;100.00
2184;BME280;1098;48.940;8.962;2022-10-16T11:45:43;98578.84;;;21.35;100.00
2184;BME280;1098;48.940;8.962;2022-10-16T11:48:15;98573.06;;;21.93;100.00
2184;BME280;1098;48.940;8.962;2022-10-16T11:50:48;98563.56;;;21.67;100.00
2184;BME280;1098;48.940;8.962;2022-10-16T11:53:20;98573.66;;;21.52;100.00
2184;BME280;1098;48.940;8.962;2022-10-16T11:55:51;98571.00;;;21.66;100.00
2184;BME280;1098;48.940;8.962;2022-10-16T11:58:24;98575.91;;;22.07;100.00
2184;BME280;1098;48.940;8.962;2022-10-16T12:00:57;98573.91;;;21.75;100.00
2184;BME280;1098;48.940;8.962;2022-10-16T12:03:28;98575.97;;;21.64;100.00
2184;BME280;1098;48.940;8.962;2022-10-16T12:06:10;98568.91;;;21.77;100.00
2184;BME280;1098;48.940;8.962;2022-10-16T12:08:42;98563.94;;;21.60;100.00
2184;BME280;1098;48.940;8.962;2022-10-16T12:11:20;98567.41;;;21.66;100.00
2184;BME280;1098;48.940;8.962;2022-10-16T12:13:50;98564.59;;;21.71;100.00
2184;BME280;1098;48.940;8.962;2022-10-16T12:16:23;98569.75;;;21.58;100.00
2184;BME280;1098;48.940;8.962;2022-10-16T12:19:02;98568.91;;;21.58;100.00
2184;BME280;1098;48.940;8.962;2022-10-16T12:21:31;98574.63;;;21.61;100.00
2184;BME280;1098;48.940;8.962;2022-10-16T12:24:00;98563.94;;;21.60;100.00
2184;BME280;1098;48.940;8.962;2022-10-16T12:26:31;98573.19;;;21.45;100.00
2184;BME280;1098;48.940;8.962;2022-10-16T12:29:09;98564.66;;;21.84;100.00
2184;BME280;1098;48.940;8.962;2022-10-16T12:31:43;98562.97;;;21.70;100.00
2184;BME280;1098;48.940;8.962;2022-10-16T12:34:25;98560.88;;;21.61;100.00
2184;BME280;1098;48.940;8.962;2022-10-16T12:36:55;98559.75;;;21.44;100.00
2184;BME280;1098;48.940;8.962;2022-10-16T12:39:24;98555.66;;;22.16;100.00
2184;BME280;1098;48.940;8.962;2022-10-16T12:42:01;98551.72;;;22.04;100.00
2184;BME280;1098;48.940;8.962;2022-10-16T12:44:34;98551.06;;;21.93;100.00
2184;BME280;1098;48.940;8.962;2022-10-16T12:47:03;98558.16;;;21.80;100.00
2184;BME280;1098;48.940;8.962;2022-10-16T12:49:36;98570.09;;;21.71;100.00
2184;BME280;1098;48.940;8.962;2022-10-16T12:52:04;98562.84;;;21.80;100.00
2184;BME280;1098;48.940;8.962;2022-10-16T12:54:34;98565.59;;;21.61;100.00
2184;BME280;1098;48.940;8.962;2022-10-16T12:57:06;98567.50;;;21.79;100.00
2184;BME280;1098;48.940;8.962;2022-10-16T12:59:38;98570.25;;;21.98;100.00
2184;BME280;1098;48.940;8.962;2022-10-16T13:05:01;98569.06;;;22.04;100.00
2184;BME280;1098;48.940;8.962;2022-10-16T13:07:41;98567.88;;;22.10;100.00
2184;BME280;1098;48.940;8.962;2022-10-16T13:10:14;98570.13;;;22.41;100.00
2184;BME280;1098;48.940;8.962;2022-10-16T13:15:52;98575.38;;;21.86;100.00
2184;BME280;1098;48.940;8.962;2022-10-16T13:18:22;98582.16;;;21.75;100.00
2184;BME280;1098;48.940;8.962;2022-10-16T13:20:59;98582.22;;;21.88;100.00
2184;BME280;1098;48.940;8.962;2022-10-16T13:23:31;98583.78;;;21.76;100.00
2184;BME280;1098;48.940;8.962;2022-10-16T13:26:14;98581.84;;;21.76;100.00
2184;BME280;1098;48.940;8.962;2022-10-16T13:28:44;98583.50;;;21.77;100.00
2184;BME280;1098;48.940;8.962;2022-10-16T13:31:14;98580.50;;;21.92;100.00
2184;BME280;1098;48.940;8.962;2022-10-16T13:33:49;98575.09;;;22.06;100.00
2184;BME280;1098;48.940;8.962;2022-10-16T13:36:26;98579.66;;;22.29;100.00
2184;BME280;1098;48.940;8.962;2022-10-16T13:39:00;98584.78;;;22.36;100.00
2184;BME280;1098;48.940;8.962;2022-10-16T13:41:29;98582.06;;;22.82;100.00